Bega, New South Wales

6:18 AM AEST on September 21, 2014 (GMT +1000)
Wolumla | Change Station
CLOSE
Current Station
Personal Weather Station
Location: Wolumla, NEW SOUTH WALES
Elevation: 495 ft
Nearby Weather Stations

Elev 495 ft 36.83 °S, 149.79 °E | Updated 5 seconds ago

Clear
Clear
38.4 °F
Feels Like 38 °F
N
2.3
Wind Variable Wind from SE
Gusts 2.3 mph

Today
High -- | Low -- °F
--% Chance of Precip.
Yesterday
High -- | Low -- °F
Precip. -- in
5:52 AM 5:55 PM
Waning Crescent, 10% visible
Pressure 30.39 in
Visibility 6.2 miles
Clouds
Windchill 38 °F
Dew Point 37 °F
Humidity 95%
Rainfall 0.00 in
Snow Depth Not available.
UV 0.0 out of 12
Pollen Not available.
Air Quality Not available.
Flu Activity Not available.
METAR YMER 202000Z AUTO 21005KT 9999 // NCD 05/04 Q1029

More Conditions Fewer Conditions

Pressure 30.39 in
Visibility 6.2 miles
Clouds
Windchill 38 °F
Dew Point 37 °F
Humidity 95%
Rainfall 0.00 in
Snow Depth Not available.
UV 0.0 out of 12
Pollen Not available.
Air Quality Not available.
Flu Activity Not available.
METAR YMER 202000Z AUTO 21005KT 9999 // NCD 05/04 Q1029

More Conditions Fewer Conditions

10-Day Weather Forecast

Almanac

Astronomy

Sep. 21, 2014 Rise Set
Actual Time 5:52 AM AEST 5:55 PM AEST
Civil Twilight 5:26 AM AEST 6:21 PM AEST
Nautical Twilight 4:56 AM AEST 6:51 PM AEST
Astronomical Twilight 4:26 AM AEST 7:22 PM AEST
Moon 3:55 AM AEST (9/21) 3:14 PM AEST (9/21)
Length of Visible Light 12h 54m
Length of Day
12h 03m
Tomorrow will be 2m 20s longer.
Waning Crescent, 10% of the Moon is Illuminated
Sep 20
Waning Crescent
Sep 24
New
Oct 1
First Quarter
Oct 8
Full
Oct 15
Last Quarter

Yesterday's Extremes

Country Highs Country Lows

Community

WunderPhotos

Upload Photos

1,754,927 photos uploaded!

WunderBlogs® & News

Nearby

Snow Depth

Not available.

Earthquake Activity

City Distance Mag. Time & Date
No recent earthquake activity has been reported nearby.
Minimum magnitude displayed is 2.5.

Coastal Water Temperatures

Place Temperature
No Stations Reporting

Nearby Weather Stations